sensor_id;sensor_type;location;lat;lon;timestamp;temperature;humidity
38726;DHT22;24474;48.906;8.808;2023-10-09T00:00:08;13.90;99.90
38726;DHT22;24474;48.906;8.808;2023-10-09T00:02:56;13.80;99.90
38726;DHT22;24474;48.906;8.808;2023-10-09T00:05:29;13.80;99.90
38726;DHT22;24474;48.906;8.808;2023-10-09T00:08:14;13.80;99.90
38726;DHT22;24474;48.906;8.808;2023-10-09T00:10:46;13.80;99.90
38726;DHT22;24474;48.906;8.808;2023-10-09T00:13:24;13.70;99.90
38726;DHT22;24474;48.906;8.808;2023-10-09T00:15:58;13.70;99.90
38726;DHT22;24474;48.906;8.808;2023-10-09T00:18:34;13.70;99.90
38726;DHT22;24474;48.906;8.808;2023-10-09T00:21:00;13.70;99.90
38726;DHT22;24474;48.906;8.808;2023-10-09T00:23:38;13.70;99.90
38726;DHT22;24474;48.906;8.808;2023-10-09T00:26:04;13.70;99.90
38726;DHT22;24474;48.906;8.808;2023-10-09T00:28:36;13.60;99.90
38726;DHT22;24474;48.906;8.808;2023-10-09T00:31:04;13.60;99.90
38726;DHT22;24474;48.906;8.808;2023-10-09T00:33:32;13.60;99.90
38726;DHT22;24474;48.906;8.808;2023-10-09T00:36:07;13.60;99.90
38726;DHT22;24474;48.906;8.808;2023-10-09T00:38:39;13.60;99.90
38726;DHT22;24474;48.906;8.808;2023-10-09T00:41:14;13.60;99.90
38726;DHT22;24474;48.906;8.808;2023-10-09T00:43:46;13.60;99.90
38726;DHT22;24474;48.906;8.808;2023-10-09T00:46:16;13.50;99.90
38726;DHT22;24474;48.906;8.808;2023-10-09T00:48:56;13.50;99.90
38726;DHT22;24474;48.906;8.808;2023-10-09T00:51:29;13.50;99.90
38726;DHT22;24474;48.906;8.808;2023-10-09T00:54:02;13.50;99.90
38726;DHT22;24474;48.906;8.808;2023-10-09T00:56:40;13.50;99.90
38726;DHT22;24474;48.906;8.808;2023-10-09T00:59:10;13.60;99.90
38726;DHT22;24474;48.906;8.808;2023-10-09T01:01:46;13.50;99.90
38726;DHT22;24474;48.906;8.808;2023-10-09T01:04:29;13.50;99.90
38726;DHT22;24474;48.906;8.808;2023-10-09T01:07:04;13.50;99.90
38726;DHT22;24474;48.906;8.808;2023-10-09T01:09:43;13.50;99.90
38726;DHT22;24474;48.906;8.808;2023-10-09T01:12:11;13.50;99.90
38726;DHT22;24474;48.906;8.808;2023-10-09T01:14:45;13.50;99.90
38726;DHT22;24474;48.906;8.808;2023-10-09T01:17:18;13.50;99.90
38726;DHT22;24474;48.906;8.808;2023-10-09T01:19:56;13.50;99.90
38726;DHT22;24474;48.906;8.808;2023-10-09T01:22:23;13.40;99.90
38726;DHT22;24474;48.906;8.808;2023-10-09T01:24:49;13.50;99.90
38726;DHT22;24474;48.906;8.808;2023-10-09T01:27:16;13.40;99.90
38726;DHT22;24474;48.906;8.808;2023-10-09T01:29:42;13.50;99.90
38726;DHT22;24474;48.906;8.808;2023-10-09T01:32:09;13.40;99.90
38726;DHT22;24474;48.906;8.808;2023-10-09T01:34:42;13.40;99.90
38726;DHT22;24474;48.906;8.808;2023-10-09T01:37:11;13.40;99.90
38726;DHT22;24474;48.906;8.808;2023-10-09T01:39:47;13.40;99.90
38726;DHT22;24474;48.906;8.808;2023-10-09T01:42:22;13.40;99.90
38726;DHT22;24474;48.906;8.808;2023-10-09T01:45:10;13.40;99.90
38726;DHT22;24474;48.906;8.808;2023-10-09T01:47:37;13.40;99.90
38726;DHT22;24474;48.906;8.808;2023-10-09T01:50:06;13.40;99.90
38726;DHT22;24474;48.906;8.808;2023-10-09T01:52:45;13.40;99.90
38726;DHT22;24474;48.906;8.808;2023-10-09T01:55:11;13.40;99.90
38726;DHT22;24474;48.906;8.808;2023-10-09T01:57:40;13.40;99.90
38726;DHT22;24474;48.906;8.808;2023-10-09T02:00:11;13.40;99.90
38726;DHT22;24474;48.906;8.808;2023-10-09T02:02:48;13.40;99.90
38726;DHT22;24474;48.906;8.808;2023-10-09T02:05:18;13.40;99.90
38726;DHT22;24474;48.906;8.808;2023-10-09T02:07:43;13.40;99.90
38726;DHT22;24474;48.906;8.808;2023-10-09T02:10:19;13.40;99.90
38726;DHT22;24474;48.906;8.808;2023-10-09T02:12:58;13.40;99.90
38726;DHT22;24474;48.906;8.808;2023-10-09T02:15:28;13.40;99.90
38726;DHT22;24474;48.906;8.808;2023-10-09T02:18:12;13.40;99.90
38726;DHT22;24474;48.906;8.808;2023-10-09T02:20:51;13.40;99.90
38726;DHT22;24474;48.906;8.808;2023-10-09T02:23:27;13.40;99.90
38726;DHT22;24474;48.906;8.808;2023-10-09T02:26:08;13.40;99.90
38726;DHT22;24474;48.906;8.808;2023-10-09T02:28:57;13.40;99.90
38726;DHT22;24474;48.906;8.808;2023-10-09T02:31:31;13.40;99.90
38726;DHT22;24474;48.906;8.808;2023-10-09T02:34:09;13.40;99.90
38726;DHT22;24474;48.906;8.808;2023-10-09T02:36:36;13.40;99.90
38726;DHT22;24474;48.906;8.808;2023-10-09T02:39:15;13.40;99.90
38726;DHT22;24474;48.906;8.808;2023-10-09T02:41:53;13.40;99.90
38726;DHT22;24474;48.906;8.808;2023-10-09T02:44:37;13.40;99.90
38726;DHT22;24474;48.906;8.808;2023-10-09T02:47:06;13.40;99.90
38726;DHT22;24474;48.906;8.808;2023-10-09T02:49:43;13.40;99.90
38726;DHT22;24474;48.906;8.808;2023-10-09T02:52:08;13.40;99.90
38726;DHT22;24474;48.906;8.808;2023-10-09T02:54:36;13.40;99.90
38726;DHT22;24474;48.906;8.808;2023-10-09T02:57:06;13.40;99.90
38726;DHT22;24474;48.906;8.808;2023-10-09T02:59:41;13.40;99.90
38726;DHT22;24474;48.906;8.808;2023-10-09T03:02:07;13.40;99.90
38726;DHT22;24474;48.906;8.808;2023-10-09T03:04:34;13.40;99.90
38726;DHT22;24474;48.906;8.808;2023-10-09T03:07:02;13.40;99.90
38726;DHT22;24474;48.906;8.808;2023-10-09T03:09:29;13.40;99.90
38726;DHT22;24474;48.906;8.808;2023-10-09T03:12:00;13.40;99.90
38726;DHT22;24474;48.906;8.808;2023-10-09T03:14:32;13.40;99.90
38726;DHT22;24474;48.906;8.808;2023-10-09T03:16:58;13.40;99.90
38726;DHT22;24474;48.906;8.808;2023-10-09T03:19:28;13.40;99.90
38726;DHT22;24474;48.906;8.808;2023-10-09T03:21:55;13.40;99.90
38726;DHT22;24474;48.906;8.808;2023-10-09T03:24:26;13.40;99.90
38726;DHT22;24474;48.906;8.808;2023-10-09T03:26:53;13.40;99.90
38726;DHT22;24474;48.906;8.808;2023-10-09T03:29:21;13.40;99.90
38726;DHT22;24474;48.906;8.808;2023-10-09T03:31:47;13.40;99.90
38726;DHT22;24474;48.906;8.808;2023-10-09T03:34:16;13.40;99.90
38726;DHT22;24474;48.906;8.808;2023-10-09T03:36:42;13.40;99.90
38726;DHT22;24474;48.906;8.808;2023-10-09T03:39:09;13.40;99.90
38726;DHT22;24474;48.906;8.808;2023-10-09T03:41:50;13.40;99.90
38726;DHT22;24474;48.906;8.808;2023-10-09T03:44:16;13.40;99.90
38726;DHT22;24474;48.906;8.808;2023-10-09T03:46:45;13.40;99.90
38726;DHT22;24474;48.906;8.808;2023-10-09T03:49:11;13.40;99.90
38726;DHT22;24474;48.906;8.808;2023-10-09T03:51:39;13.30;99.90
38726;DHT22;24474;48.906;8.808;2023-10-09T03:54:05;13.40;99.90
38726;DHT22;24474;48.906;8.808;2023-10-09T03:56:34;13.30;99.90
38726;DHT22;24474;48.906;8.808;2023-10-09T03:59:00;13.30;99.90
38726;DHT22;24474;48.906;8.808;2023-10-09T04:01:27;13.30;99.90
38726;DHT22;24474;48.906;8.808;2023-10-09T04:04:04;13.30;99.90
38726;DHT22;24474;48.906;8.808;2023-10-09T04:06:32;13.30;99.90
38726;DHT22;24474;48.906;8.808;2023-10-09T04:11:27;13.30;99.90
38726;DHT22;24474;48.906;8.808;2023-10-09T04:13:53;13.30;99.90
38726;DHT22;24474;48.906;8.808;2023-10-09T04:16:19;13.30;99.90
38726;DHT22;24474;48.906;8.808;2023-10-09T04:19:00;13.20;99.90
38726;DHT22;24474;48.906;8.808;2023-10-09T04:21:32;13.30;99.90
38726;DHT22;24474;48.906;8.808;2023-10-09T04:24:04;13.30;99.90
38726;DHT22;24474;48.906;8.808;2023-10-09T04:26:40;13.20;99.90
38726;DHT22;24474;48.906;8.808;2023-10-09T04:29:13;13.20;99.90
38726;DHT22;24474;48.906;8.808;2023-10-09T04:31:45;13.20;99.90
38726;DHT22;24474;48.906;8.808;2023-10-09T04:34:17;13.20;99.90
38726;DHT22;24474;48.906;8.808;2023-10-09T04:36:57;13.20;99.90
38726;DHT22;24474;48.906;8.808;2023-10-09T04:39:43;13.10;99.90
38726;DHT22;24474;48.906;8.808;2023-10-09T04:42:15;13.20;99.90
38726;DHT22;24474;48.906;8.808;2023-10-09T04:44:45;13.20;99.90
38726;DHT22;24474;48.906;8.808;2023-10-09T04:47:27;13.20;99.90
38726;DHT22;24474;48.906;8.808;2023-10-09T04:50:05;13.10;99.90
38726;DHT22;24474;48.906;8.808;2023-10-09T04:52:40;13.20;99.90
38726;DHT22;24474;48.906;8.808;2023-10-09T04:55:07;13.10;99.90
38726;DHT22;24474;48.906;8.808;2023-10-09T04:57:37;13.10;99.90
38726;DHT22;24474;48.906;8.808;2023-10-09T05:00:25;13.10;99.90
38726;DHT22;24474;48.906;8.808;2023-10-09T05:02:52;13.10;99.90
38726;DHT22;24474;48.906;8.808;2023-10-09T05:05:22;13.00;99.90
38726;DHT22;24474;48.906;8.808;2023-10-09T05:11:05;13.00;99.90
38726;DHT22;24474;48.906;8.808;2023-10-09T05:13:41;13.00;99.90
38726;DHT22;24474;48.906;8.808;2023-10-09T05:16:17;13.00;99.90
38726;DHT22;24474;48.906;8.808;2023-10-09T05:18:55;13.00;99.90
38726;DHT22;24474;48.906;8.808;2023-10-09T05:21:35;13.00;99.90
38726;DHT22;24474;48.906;8.808;2023-10-09T05:24:11;12.90;99.90
38726;DHT22;24474;48.906;8.808;2023-10-09T05:29:12;12.90;99.90
38726;DHT22;24474;48.906;8.808;2023-10-09T05:31:56;12.90;99.90
38726;DHT22;24474;48.906;8.808;2023-10-09T05:34:31;12.90;99.90
38726;DHT22;24474;48.906;8.808;2023-10-09T05:37:05;13.00;99.90
38726;DHT22;24474;48.906;8.808;2023-10-09T05:40:06;13.00;99.90
38726;DHT22;24474;48.906;8.808;2023-10-09T05:42:53;13.00;99.90
38726;DHT22;24474;48.906;8.808;2023-10-09T05:45:28;13.00;99.90
38726;DHT22;24474;48.906;8.808;2023-10-09T05:48:29;13.00;99.90
38726;DHT22;24474;48.906;8.808;2023-10-09T05:51:05;13.00;99.90
38726;DHT22;24474;48.906;8.808;2023-10-09T05:54:01;13.10;99.90
38726;DHT22;24474;48.906;8.808;2023-10-09T05:56:37;13.20;99.90
38726;DHT22;24474;48.906;8.808;2023-10-09T05:59:22;13.30;99.90
38726;DHT22;24474;48.906;8.808;2023-10-09T06:02:06;13.50;99.90
38726;DHT22;24474;48.906;8.808;2023-10-09T06:04:52;13.60;99.90
38726;DHT22;24474;48.906;8.808;2023-10-09T06:07:43;13.70;99.90
38726;DHT22;24474;48.906;8.808;2023-10-09T06:10:28;13.80;99.90
38726;DHT22;24474;48.906;8.808;2023-10-09T06:13:08;13.80;99.90
38726;DHT22;24474;48.906;8.808;2023-10-09T06:15:54;13.80;99.90
38726;DHT22;24474;48.906;8.808;2023-10-09T06:18:35;13.80;99.90
38726;DHT22;24474;48.906;8.808;2023-10-09T06:21:00;13.80;99.90
38726;DHT22;24474;48.906;8.808;2023-10-09T06:23:36;13.80;99.90
38726;DHT22;24474;48.906;8.808;2023-10-09T06:26:25;13.80;99.90
38726;DHT22;24474;48.906;8.808;2023-10-09T06:28:51;13.80;99.90
38726;DHT22;24474;48.906;8.808;2023-10-09T06:31:38;13.80;99.90
38726;DHT22;24474;48.906;8.808;2023-10-09T06:34:23;13.80;99.90
38726;DHT22;24474;48.906;8.808;2023-10-09T06:36:59;13.80;99.90
38726;DHT22;24474;48.906;8.808;2023-10-09T06:39:30;13.70;99.90
38726;DHT22;24474;48.906;8.808;2023-10-09T06:42:14;13.80;99.90
38726;DHT22;24474;48.906;8.808;2023-10-09T06:45:09;13.80;99.90
38726;DHT22;24474;48.906;8.808;2023-10-09T06:47:46;13.80;99.90
38726;DHT22;24474;48.906;8.808;2023-10-09T06:50:30;13.80;99.90
38726;DHT22;24474;48.906;8.808;2023-10-09T06:53:21;13.90;99.90
38726;DHT22;24474;48.906;8.808;2023-10-09T06:55:54;13.90;99.90
38726;DHT22;24474;48.906;8.808;2023-10-09T06:58:34;13.90;99.90
38726;DHT22;24474;48.906;8.808;2023-10-09T07:01:14;14.00;99.90
38726;DHT22;24474;48.906;8.808;2023-10-09T07:04:05;14.10;99.90
38726;DHT22;24474;48.906;8.808;2023-10-09T07:06:47;14.20;99.90
38726;DHT22;24474;48.906;8.808;2023-10-09T07:09:15;14.30;99.90
38726;DHT22;24474;48.906;8.808;2023-10-09T07:11:51;14.30;99.90
38726;DHT22;24474;48.906;8.808;2023-10-09T07:14:22;14.40;99.90
38726;DHT22;24474;48.906;8.808;2023-10-09T07:17:10;14.40;99.90
38726;DHT22;24474;48.906;8.808;2023-10-09T07:19:48;14.40;99.90
38726;DHT22;24474;48.906;8.808;2023-10-09T07:22:17;14.40;99.90
38726;DHT22;24474;48.906;8.808;2023-10-09T07:24:53;14.40;99.90
38726;DHT22;24474;48.906;8.808;2023-10-09T07:27:31;14.40;99.90
38726;DHT22;24474;48.906;8.808;2023-10-09T07:30:11;14.50;99.90
38726;DHT22;24474;48.906;8.808;2023-10-09T07:33:04;14.50;99.90
38726;DHT22;24474;48.906;8.808;2023-10-09T07:36:00;14.50;99.90
38726;DHT22;24474;48.906;8.808;2023-10-09T07:38:33;14.60;99.90
38726;DHT22;24474;48.906;8.808;2023-10-09T07:41:02;14.60;99.90
38726;DHT22;24474;48.906;8.808;2023-10-09T07:43:38;14.70;99.90
38726;DHT22;24474;48.906;8.808;2023-10-09T07:46:14;14.70;99.90
38726;DHT22;24474;48.906;8.808;2023-10-09T07:49:05;14.70;99.90
38726;DHT22;24474;48.906;8.808;2023-10-09T07:51:43;14.80;99.90
38726;DHT22;24474;48.906;8.808;2023-10-09T07:54:09;14.90;99.90
38726;DHT22;24474;48.906;8.808;2023-10-09T07:56:42;14.90;99.90
38726;DHT22;24474;48.906;8.808;2023-10-09T07:59:14;14.90;99.90
38726;DHT22;24474;48.906;8.808;2023-10-09T08:01:45;15.00;99.90
38726;DHT22;24474;48.906;8.808;2023-10-09T08:04:37;15.10;99.90
38726;DHT22;24474;48.906;8.808;2023-10-09T08:07:14;15.20;99.90
38726;DHT22;24474;48.906;8.808;2023-10-09T08:09:51;15.30;99.90
38726;DHT22;24474;48.906;8.808;2023-10-09T08:12:36;15.40;99.90
38726;DHT22;24474;48.906;8.808;2023-10-09T08:15:15;15.60;99.90
38726;DHT22;24474;48.906;8.808;2023-10-09T08:17:52;15.90;99.90
38726;DHT22;24474;48.906;8.808;2023-10-09T08:20:46;16.20;99.90
38726;DHT22;24474;48.906;8.808;2023-10-09T08:23:25;16.40;99.90
38726;DHT22;24474;48.906;8.808;2023-10-09T08:26:17;16.60;99.90
38726;DHT22;24474;48.906;8.808;2023-10-09T08:29:12;16.80;99.90
38726;DHT22;24474;48.906;8.808;2023-10-09T08:31:46;16.90;99.90
38726;DHT22;24474;48.906;8.808;2023-10-09T08:34:14;17.00;99.90
38726;DHT22;24474;48.906;8.808;2023-10-09T08:36:53;17.10;99.90
38726;DHT22;24474;48.906;8.808;2023-10-09T08:39:20;17.30;99.90
38726;DHT22;24474;48.906;8.808;2023-10-09T08:41:54;17.40;99.90
38726;DHT22;24474;48.906;8.808;2023-10-09T08:44:28;17.60;99.90
38726;DHT22;24474;48.906;8.808;2023-10-09T08:47:04;17.70;99.90
38726;DHT22;24474;48.906;8.808;2023-10-09T08:49:30;17.70;99.90
38726;DHT22;24474;48.906;8.808;2023-10-09T08:52:00;17.90;99.90
38726;DHT22;24474;48.906;8.808;2023-10-09T08:54:28;17.90;99.90
38726;DHT22;24474;48.906;8.808;2023-10-09T08:56:58;18.10;99.70
38726;DHT22;24474;48.906;8.808;2023-10-09T08:59:24;18.20;99.40
38726;DHT22;24474;48.906;8.808;2023-10-09T09:01:50;18.30;99.50
38726;DHT22;24474;48.906;8.808;2023-10-09T09:04:40;18.40;99.30
38726;DHT22;24474;48.906;8.808;2023-10-09T09:07:26;18.50;99.40
38726;DHT22;24474;48.906;8.808;2023-10-09T09:10:02;18.60;99.30
38726;DHT22;24474;48.906;8.808;2023-10-09T09:12:44;18.70;99.30
38726;DHT22;24474;48.906;8.808;2023-10-09T09:15:20;18.70;99.00
38726;DHT22;24474;48.906;8.808;2023-10-09T09:17:49;18.80;98.90
38726;DHT22;24474;48.906;8.808;2023-10-09T09:20:33;18.90;99.10
38726;DHT22;24474;48.906;8.808;2023-10-09T09:23:11;19.00;99.10
38726;DHT22;24474;48.906;8.808;2023-10-09T09:25:48;19.00;99.20
38726;DHT22;24474;48.906;8.808;2023-10-09T09:28:26;19.10;99.20
38726;DHT22;24474;48.906;8.808;2023-10-09T09:31:08;19.10;99.30
38726;DHT22;24474;48.906;8.808;2023-10-09T09:33:40;19.20;98.80
38726;DHT22;24474;48.906;8.808;2023-10-09T09:36:09;19.30;98.80
38726;DHT22;24474;48.906;8.808;2023-10-09T09:38:38;19.30;98.50
38726;DHT22;24474;48.906;8.808;2023-10-09T09:41:27;19.40;98.40
38726;DHT22;24474;48.906;8.808;2023-10-09T09:43:55;19.60;99.10
38726;DHT22;24474;48.906;8.808;2023-10-09T09:46:23;19.60;98.70
38726;DHT22;24474;48.906;8.808;2023-10-09T09:49:00;19.70;98.40
38726;DHT22;24474;48.906;8.808;2023-10-09T09:51:30;19.80;98.10
38726;DHT22;24474;48.906;8.808;2023-10-09T09:53:55;19.80;98.30
38726;DHT22;24474;48.906;8.808;2023-10-09T09:56:24;19.90;98.30
38726;DHT22;24474;48.906;8.808;2023-10-09T09:58:51;20.00;97.70
38726;DHT22;24474;48.906;8.808;2023-10-09T10:01:28;20.00;97.90
38726;DHT22;24474;48.906;8.808;2023-10-09T10:04:12;20.10;97.90
38726;DHT22;24474;48.906;8.808;2023-10-09T10:06:46;20.10;97.60
38726;DHT22;24474;48.906;8.808;2023-10-09T10:09:39;20.20;97.80
38726;DHT22;24474;48.906;8.808;2023-10-09T10:12:05;20.30;97.70
38726;DHT22;24474;48.906;8.808;2023-10-09T10:14:56;20.40;97.50
38726;DHT22;24474;48.906;8.808;2023-10-09T10:17:25;20.40;97.80
38726;DHT22;24474;48.906;8.808;2023-10-09T10:20:05;20.50;97.50
38726;DHT22;24474;48.906;8.808;2023-10-09T10:22:44;20.50;97.30
38726;DHT22;24474;48.906;8.808;2023-10-09T10:28:24;20.70;97.40
38726;DHT22;24474;48.906;8.808;2023-10-09T10:31:11;20.70;97.00
38726;DHT22;24474;48.906;8.808;2023-10-09T10:36:24;20.70;96.80
38726;DHT22;24474;48.906;8.808;2023-10-09T10:39:08;20.70;96.80
38726;DHT22;24474;48.906;8.808;2023-10-09T10:42:00;20.80;96.60
38726;DHT22;24474;48.906;8.808;2023-10-09T10:44:31;20.80;96.80
38726;DHT22;24474;48.906;8.808;2023-10-09T10:47:08;20.80;96.60
38726;DHT22;24474;48.906;8.808;2023-10-09T10:49:52;20.90;96.40
38726;DHT22;24474;48.906;8.808;2023-10-09T10:52:24;21.00;96.30
38726;DHT22;24474;48.906;8.808;2023-10-09T10:55:12;21.10;96.30
38726;DHT22;24474;48.906;8.808;2023-10-09T10:57:56;21.20;96.10
38726;DHT22;24474;48.906;8.808;2023-10-09T11:00:27;21.20;95.60
38726;DHT22;24474;48.906;8.808;2023-10-09T11:03:28;21.30;95.90
38726;DHT22;24474;48.906;8.808;2023-10-09T11:06:28;21.30;95.70
38726;DHT22;24474;48.906;8.808;2023-10-09T11:09:07;21.40;95.60
38726;DHT22;24474;48.906;8.808;2023-10-09T11:11:37;21.40;95.30
38726;DHT22;24474;48.906;8.808;2023-10-09T11:14:16;21.40;95.90
38726;DHT22;24474;48.906;8.808;2023-10-09T11:16:49;21.40;95.70
38726;DHT22;24474;48.906;8.808;2023-10-09T11:19:22;21.40;95.70
38726;DHT22;24474;48.906;8.808;2023-10-09T11:21:58;21.40;95.10
38726;DHT22;24474;48.906;8.808;2023-10-09T11:24:33;21.40;95.10
38726;DHT22;24474;48.906;8.808;2023-10-09T11:27:04;21.40;94.80
38726;DHT22;24474;48.906;8.808;2023-10-09T11:29:35;21.50;94.70
38726;DHT22;24474;48.906;8.808;2023-10-09T11:32:22;21.40;94.40
38726;DHT22;24474;48.906;8.808;2023-10-09T11:34:51;21.50;94.50
38726;DHT22;24474;48.906;8.808;2023-10-09T11:37:18;21.50;94.40
38726;DHT22;24474;48.906;8.808;2023-10-09T11:40:32;21.60;94.00
38726;DHT22;24474;48.906;8.808;2023-10-09T11:43:15;21.60;94.30
38726;DHT22;24474;48.906;8.808;2023-10-09T11:45:41;21.60;94.10
38726;DHT22;24474;48.906;8.808;2023-10-09T11:48:20;21.60;94.30
38726;DHT22;24474;48.906;8.808;2023-10-09T11:51:13;21.60;93.90
38726;DHT22;24474;48.906;8.808;2023-10-09T11:53:46;21.60;94.00
38726;DHT22;24474;48.906;8.808;2023-10-09T11:56:16;21.70;93.90
38726;DHT22;24474;48.906;8.808;2023-10-09T11:58:52;21.80;94.20
38726;DHT22;24474;48.906;8.808;2023-10-09T12:01:21;21.80;94.40
38726;DHT22;24474;48.906;8.808;2023-10-09T12:03:50;21.80;94.20
38726;DHT22;24474;48.906;8.808;2023-10-09T12:06:16;21.80;94.20
38726;DHT22;24474;48.906;8.808;2023-10-09T12:08:49;21.80;94.50
38726;DHT22;24474;48.906;8.808;2023-10-09T12:11:16;21.80;94.10
38726;DHT22;24474;48.906;8.808;2023-10-09T12:13:49;21.80;94.30
38726;DHT22;24474;48.906;8.808;2023-10-09T12:16:24;21.80;94.30
38726;DHT22;24474;48.906;8.808;2023-10-09T12:18:56;21.80;94.20
38726;DHT22;24474;48.906;8.808;2023-10-09T12:21:23;21.80;94.30
38726;DHT22;24474;48.906;8.808;2023-10-09T12:23:49;21.90;94.50
38726;DHT22;24474;48.906;8.808;2023-10-09T12:26:14;21.90;94.40
38726;DHT22;24474;48.906;8.808;2023-10-09T12:28:41;21.90;94.20
38726;DHT22;24474;48.906;8.808;2023-10-09T12:31:18;21.90;93.40
38726;DHT22;24474;48.906;8.808;2023-10-09T12:33:45;22.00;92.90
38726;DHT22;24474;48.906;8.808;2023-10-09T12:36:13;22.00;93.10
38726;DHT22;24474;48.906;8.808;2023-10-09T12:38:46;22.10;92.30
38726;DHT22;24474;48.906;8.808;2023-10-09T12:41:18;22.10;92.30
38726;DHT22;24474;48.906;8.808;2023-10-09T12:43:51;22.10;92.40
38726;DHT22;24474;48.906;8.808;2023-10-09T12:46:18;22.10;92.20
38726;DHT22;24474;48.906;8.808;2023-10-09T12:48:51;22.10;91.70
38726;DHT22;24474;48.906;8.808;2023-10-09T12:51:20;22.10;91.60
38726;DHT22;24474;48.906;8.808;2023-10-09T12:53:46;22.20;91.60
38726;DHT22;24474;48.906;8.808;2023-10-09T12:56:14;22.20;91.00
38726;DHT22;24474;48.906;8.808;2023-10-09T12:58:43;22.20;90.30
38726;DHT22;24474;48.906;8.808;2023-10-09T13:01:18;22.30;90.30
38726;DHT22;24474;48.906;8.808;2023-10-09T13:03:45;22.30;88.90
38726;DHT22;24474;48.906;8.808;2023-10-09T13:06:15;22.40;87.30
38726;DHT22;24474;48.906;8.808;2023-10-09T13:08:41;22.30;85.50
38726;DHT22;24474;48.906;8.808;2023-10-09T13:11:11;22.40;85.20
38726;DHT22;24474;48.906;8.808;2023-10-09T13:13:40;22.40;87.50
38726;DHT22;24474;48.906;8.808;2023-10-09T13:16:14;22.40;87.20
38726;DHT22;24474;48.906;8.808;2023-10-09T13:18:51;22.50;86.20
38726;DHT22;24474;48.906;8.808;2023-10-09T13:21:28;22.50;83.80
38726;DHT22;24474;48.906;8.808;2023-10-09T13:23:59;22.40;83.40
38726;DHT22;24474;48.906;8.808;2023-10-09T13:26:29;22.50;81.40
38726;DHT22;24474;48.906;8.808;2023-10-09T13:28:57;22.50;81.50
38726;DHT22;24474;48.906;8.808;2023-10-09T13:31:25;22.60;82.80
38726;DHT22;24474;48.906;8.808;2023-10-09T13:34:03;22.70;83.60
38726;DHT22;24474;48.906;8.808;2023-10-09T13:36:31;22.80;83.00
38726;DHT22;24474;48.906;8.808;2023-10-09T13:39:00;22.90;81.60
38726;DHT22;24474;48.906;8.808;2023-10-09T13:44:17;23.00;81.20
38726;DHT22;24474;48.906;8.808;2023-10-09T13:46:44;23.10;80.60
38726;DHT22;24474;48.906;8.808;2023-10-09T13:49:12;23.10;80.40
38726;DHT22;24474;48.906;8.808;2023-10-09T13:51:38;23.20;81.80
38726;DHT22;24474;48.906;8.808;2023-10-09T13:54:11;23.30;79.70
38726;DHT22;24474;48.906;8.808;2023-10-09T13:56:45;23.30;78.50
38726;DHT22;24474;48.906;8.808;2023-10-09T13:59:10;23.40;78.90
38726;DHT22;24474;48.906;8.808;2023-10-09T14:01:39;23.50;79.70
38726;DHT22;24474;48.906;8.808;2023-10-09T14:04:06;23.50;78.40
38726;DHT22;24474;48.906;8.808;2023-10-09T14:06:33;23.50;79.00
38726;DHT22;24474;48.906;8.808;2023-10-09T14:09:02;23.50;78.10
38726;DHT22;24474;48.906;8.808;2023-10-09T14:11:37;23.50;78.20
38726;DHT22;24474;48.906;8.808;2023-10-09T14:14:10;23.60;77.30
38726;DHT22;24474;48.906;8.808;2023-10-09T14:16:37;23.60;77.10
38726;DHT22;24474;48.906;8.808;2023-10-09T14:19:03;23.60;77.30
38726;DHT22;24474;48.906;8.808;2023-10-09T14:21:34;23.60;77.60
38726;DHT22;24474;48.906;8.808;2023-10-09T14:24:08;23.70;77.10
38726;DHT22;24474;48.906;8.808;2023-10-09T14:26:54;23.70;77.40
38726;DHT22;24474;48.906;8.808;2023-10-09T14:29:23;23.70;77.60
38726;DHT22;24474;48.906;8.808;2023-10-09T14:31:52;23.70;78.50
38726;DHT22;24474;48.906;8.808;2023-10-09T14:34:26;23.70;77.90
38726;DHT22;24474;48.906;8.808;2023-10-09T14:37:00;23.70;77.50
38726;DHT22;24474;48.906;8.808;2023-10-09T14:39:27;23.60;77.30
38726;DHT22;24474;48.906;8.808;2023-10-09T14:41:53;23.70;78.30
38726;DHT22;24474;48.906;8.808;2023-10-09T14:44:20;23.70;78.40
38726;DHT22;24474;48.906;8.808;2023-10-09T14:46:46;23.70;79.60
38726;DHT22;24474;48.906;8.808;2023-10-09T14:49:14;23.70;78.60
38726;DHT22;24474;48.906;8.808;2023-10-09T14:51:43;23.70;78.60
38726;DHT22;24474;48.906;8.808;2023-10-09T14:54:09;23.70;79.00
38726;DHT22;24474;48.906;8.808;2023-10-09T14:56:36;23.70;79.40
38726;DHT22;24474;48.906;8.808;2023-10-09T14:59:02;23.70;78.90
38726;DHT22;24474;48.906;8.808;2023-10-09T15:01:29;23.70;79.70
38726;DHT22;24474;48.906;8.808;2023-10-09T15:03:57;23.60;79.80
38726;DHT22;24474;48.906;8.808;2023-10-09T15:06:32;23.60;79.50
38726;DHT22;24474;48.906;8.808;2023-10-09T15:08:59;23.60;79.70
38726;DHT22;24474;48.906;8.808;2023-10-09T15:11:33;23.60;81.10
38726;DHT22;24474;48.906;8.808;2023-10-09T15:13:59;23.60;80.60
38726;DHT22;24474;48.906;8.808;2023-10-09T15:16:25;23.50;80.60
38726;DHT22;24474;48.906;8.808;2023-10-09T15:18:56;23.50;80.80
38726;DHT22;24474;48.906;8.808;2023-10-09T15:21:28;23.50;80.90
38726;DHT22;24474;48.906;8.808;2023-10-09T15:23:57;23.50;82.20
38726;DHT22;24474;48.906;8.808;2023-10-09T15:26:23;23.40;81.70
38726;DHT22;24474;48.906;8.808;2023-10-09T15:28:56;23.40;82.00
38726;DHT22;24474;48.906;8.808;2023-10-09T15:31:24;23.40;81.90
38726;DHT22;24474;48.906;8.808;2023-10-09T15:33:51;23.40;82.70
38726;DHT22;24474;48.906;8.808;2023-10-09T15:36:17;23.30;82.60
38726;DHT22;24474;48.906;8.808;2023-10-09T15:38:45;23.30;82.80
38726;DHT22;24474;48.906;8.808;2023-10-09T15:41:11;23.30;82.70
38726;DHT22;24474;48.906;8.808;2023-10-09T15:43:37;23.30;83.40
38726;DHT22;24474;48.906;8.808;2023-10-09T15:46:13;23.20;83.30
38726;DHT22;24474;48.906;8.808;2023-10-09T15:48:42;23.20;83.20
38726;DHT22;24474;48.906;8.808;2023-10-09T15:51:12;23.20;84.50
38726;DHT22;24474;48.906;8.808;2023-10-09T15:53:45;23.10;86.30
38726;DHT22;24474;48.906;8.808;2023-10-09T15:56:12;23.10;84.30
38726;DHT22;24474;48.906;8.808;2023-10-09T15:58:42;23.10;84.60
38726;DHT22;24474;48.906;8.808;2023-10-09T16:01:16;23.10;84.50
38726;DHT22;24474;48.906;8.808;2023-10-09T16:03:46;23.10;84.80
38726;DHT22;24474;48.906;8.808;2023-10-09T16:06:16;23.00;86.20
38726;DHT22;24474;48.906;8.808;2023-10-09T16:08:43;23.00;87.20
38726;DHT22;24474;48.906;8.808;2023-10-09T16:11:11;22.90;87.20
38726;DHT22;24474;48.906;8.808;2023-10-09T16:13:38;22.90;88.60
38726;DHT22;24474;48.906;8.808;2023-10-09T16:16:05;22.80;88.00
38726;DHT22;24474;48.906;8.808;2023-10-09T16:18:35;22.70;87.20
38726;DHT22;24474;48.906;8.808;2023-10-09T16:21:04;22.70;87.50
38726;DHT22;24474;48.906;8.808;2023-10-09T16:23:34;22.60;87.10
38726;DHT22;24474;48.906;8.808;2023-10-09T16:26:01;22.60;87.10
38726;DHT22;24474;48.906;8.808;2023-10-09T16:28:29;22.60;87.10